sensor_id;sensor_type;location;lat;lon;timestamp;pressure;altitude;pressure_sealevel;temperature;humidity
76257;BME280;65074;50.436;8.672;2023-02-22T00:01:18;99457.63;;;3.57;100.00
76257;BME280;65074;50.436;8.672;2023-02-22T00:04:00;99455.16;;;3.62;100.00
76257;BME280;65074;50.436;8.672;2023-02-22T00:06:25;99446.34;;;3.61;100.00
76257;BME280;65074;50.436;8.672;2023-02-22T00:08:51;99442.28;;;3.65;100.00
76257;BME280;65074;50.436;8.672;2023-02-22T00:11:17;99443.50;;;3.69;100.00
76257;BME280;65074;50.436;8.672;2023-02-22T00:13:42;99445.13;;;3.64;100.00
76257;BME280;65074;50.436;8.672;2023-02-22T00:16:13;99448.22;;;3.67;100.00
76257;BME280;65074;50.436;8.672;2023-02-22T00:18:38;99443.50;;;3.69;100.00
76257;BME280;65074;50.436;8.672;2023-02-22T00:21:05;99446.19;;;3.63;100.00
76257;BME280;65074;50.436;8.672;2023-02-22T00:23:35;99441.66;;;3.57;100.00
76257;BME280;65074;50.436;8.672;2023-02-22T00:26:05;99440.44;;;3.59;100.00
76257;BME280;65074;50.436;8.672;2023-02-22T00:28:35;99432.25;;;3.61;100.00
76257;BME280;65074;50.436;8.672;2023-02-22T00:31:01;99427.78;;;3.68;100.00
76257;BME280;65074;50.436;8.672;2023-02-22T00:33:26;99435.75;;;3.68;100.00
76257;BME280;65074;50.436;8.672;2023-02-22T00:35:52;99434.28;;;3.59;100.00
76257;BME280;65074;50.436;8.672;2023-02-22T00:38:18;99430.41;;;3.55;100.00
76257;BME280;65074;50.436;8.672;2023-02-22T00:40:43;99424.47;;;3.53;100.00
76257;BME280;65074;50.436;8.672;2023-02-22T00:43:09;99416.91;;;3.50;100.00
76257;BME280;65074;50.436;8.672;2023-02-22T00:45:36;99422.00;;;3.38;100.00
76257;BME280;65074;50.436;8.672;2023-02-22T00:48:03;99424.84;;;3.37;100.00
76257;BME280;65074;50.436;8.672;2023-02-22T00:50:30;99419.91;;;3.34;100.00
76257;BME280;65074;50.436;8.672;2023-02-22T00:52:57;99417.91;;;3.42;100.00
76257;BME280;65074;50.436;8.672;2023-02-22T00:55:25;99418.09;;;3.34;100.00
76257;BME280;65074;50.436;8.672;2023-02-22T00:57:51;99414.22;;;3.30;100.00
76257;BME280;65074;50.436;8.672;2023-02-22T01:00:23;99419.91;;;3.27;100.00
76257;BME280;65074;50.436;8.672;2023-02-22T01:02:48;99413.56;;;3.15;100.00
76257;BME280;65074;50.436;8.672;2023-02-22T01:05:16;99412.72;;;3.08;100.00
76257;BME280;65074;50.436;8.672;2023-02-22T01:07:41;99415.97;;;3.03;100.00
76257;BME280;65074;50.436;8.672;2023-02-22T01:10:08;99418.81;;;3.02;100.00
76257;BME280;65074;50.436;8.672;2023-02-22T01:12:34;99409.78;;;2.90;100.00
76257;BME280;65074;50.436;8.672;2023-02-22T01:15:02;99412.00;;;2.80;100.00
76257;BME280;65074;50.436;8.672;2023-02-22T01:17:28;99424.22;;;2.74;100.00
76257;BME280;65074;50.436;8.672;2023-02-22T01:19:54;99409.91;;;2.69;100.00
76257;BME280;65074;50.436;8.672;2023-02-22T01:22:20;99416.06;;;2.69;100.00
76257;BME280;65074;50.436;8.672;2023-02-22T01:24:47;99404.78;;;2.67;100.00
76257;BME280;65074;50.436;8.672;2023-02-22T01:27:13;99398.91;;;2.78;100.00
76257;BME280;65074;50.436;8.672;2023-02-22T01:29:39;99404.91;;;2.93;100.00
76257;BME280;65074;50.436;8.672;2023-02-22T01:32:05;99403.66;;;2.89;100.00
76257;BME280;65074;50.436;8.672;2023-02-22T01:34:33;99407.56;;;2.93;100.00
76257;BME280;65074;50.436;8.672;2023-02-22T01:36:59;99405.25;;;2.77;100.00
76257;BME280;65074;50.436;8.672;2023-02-22T01:39:25;99393.16;;;2.68;100.00
76257;BME280;65074;50.436;8.672;2023-02-22T01:41:51;99396.59;;;2.62;100.00
76257;BME280;65074;50.436;8.672;2023-02-22T01:44:30;99391.03;;;2.50;100.00
76257;BME280;65074;50.436;8.672;2023-02-22T01:46:58;99383.19;;;2.36;100.00
76257;BME280;65074;50.436;8.672;2023-02-22T01:49:48;99389.72;;;2.33;100.00
76257;BME280;65074;50.436;8.672;2023-02-22T01:52:16;99383.59;;;2.33;100.00
76257;BME280;65074;50.436;8.672;2023-02-22T01:54:48;99379.06;;;2.27;100.00
76257;BME280;65074;50.436;8.672;2023-02-22T01:57:25;99377.19;;;2.21;100.00
76257;BME280;65074;50.436;8.672;2023-02-22T01:59:58;99383.09;;;2.16;100.00
76257;BME280;65074;50.436;8.672;2023-02-22T02:02:25;99385.13;;;2.14;100.00
76257;BME280;65074;50.436;8.672;2023-02-22T02:04:53;99380.16;;;2.05;100.00
76257;BME280;65074;50.436;8.672;2023-02-22T02:07:21;99372.38;;;2.03;100.00
76257;BME280;65074;50.436;8.672;2023-02-22T02:09:58;99367.06;;;2.03;100.00
76257;BME280;65074;50.436;8.672;2023-02-22T02:12:26;99367.88;;;1.97;100.00
76257;BME280;65074;50.436;8.672;2023-02-22T02:14:52;99366.22;;;1.96;100.00
76257;BME280;65074;50.436;8.672;2023-02-22T02:17:20;99360.72;;;1.97;100.00
76257;BME280;65074;50.436;8.672;2023-02-22T02:20:00;99364.19;;;1.98;100.00
76257;BME280;65074;50.436;8.672;2023-02-22T02:25:39;99360.72;;;1.97;100.00
76257;BME280;65074;50.436;8.672;2023-02-22T02:31:13;99353.53;;;1.91;100.00
76257;BME280;65074;50.436;8.672;2023-02-22T02:33:54;99348.25;;;1.91;100.00
76257;BME280;65074;50.436;8.672;2023-02-22T02:38:59;99349.81;;;1.86;100.00
76257;BME280;65074;50.436;8.672;2023-02-22T02:41:38;99347.19;;;1.86;100.00
76257;BME280;65074;50.436;8.672;2023-02-22T02:44:16;99344.09;;;1.82;100.00
76257;BME280;65074;50.436;8.672;2023-02-22T02:46:50;99338.34;;;1.79;100.00
76257;BME280;65074;50.436;8.672;2023-02-22T02:49:26;99338.75;;;1.76;100.00
76257;BME280;65074;50.436;8.672;2023-02-22T02:51:54;99332.00;;;1.73;100.00
76257;BME280;65074;50.436;8.672;2023-02-22T02:54:21;99331.16;;;1.73;100.00
76257;BME280;65074;50.436;8.672;2023-02-22T02:56:50;99328.72;;;1.71;100.00
76257;BME280;65074;50.436;8.672;2023-02-22T02:59:31;99328.31;;;1.68;100.00
76257;BME280;65074;50.436;8.672;2023-02-22T03:05:24;99324.44;;;1.70;100.00
76257;BME280;65074;50.436;8.672;2023-02-22T03:13:20;99321.81;;;1.77;100.00
76257;BME280;65074;50.436;8.672;2023-02-22T03:16:13;99328.19;;;1.82;100.00
76257;BME280;65074;50.436;8.672;2023-02-22T03:18:49;99316.78;;;1.88;100.00
76257;BME280;65074;50.436;8.672;2023-02-22T03:21:31;99318.00;;;1.86;100.00
76257;BME280;65074;50.436;8.672;2023-02-22T03:24:05;99318.81;;;1.86;100.00
76257;BME280;65074;50.436;8.672;2023-02-22T03:26:45;99319.28;;;1.90;100.00
76257;BME280;65074;50.436;8.672;2023-02-22T03:29:14;99323.38;;;1.92;100.00
76257;BME280;65074;50.436;8.672;2023-02-22T03:31:47;99313.38;;;1.94;100.00
76257;BME280;65074;50.436;8.672;2023-02-22T03:34:21;99323.00;;;2.02;100.00
76257;BME280;65074;50.436;8.672;2023-02-22T03:36:56;99322.34;;;2.00;100.00
76257;BME280;65074;50.436;8.672;2023-02-22T03:39:24;99317.47;;;1.97;100.00
76257;BME280;65074;50.436;8.672;2023-02-22T03:42:08;99310.09;;;1.92;100.00
76257;BME280;65074;50.436;8.672;2023-02-22T03:44:37;99318.63;;;1.88;100.00
76257;BME280;65074;50.436;8.672;2023-02-22T03:47:08;99314.09;;;1.82;100.00
76257;BME280;65074;50.436;8.672;2023-02-22T03:49:41;99311.00;;;1.78;100.00
76257;BME280;65074;50.436;8.672;2023-02-22T03:52:10;99307.34;;;1.79;100.00
76257;BME280;65074;50.436;8.672;2023-02-22T03:54:38;99311.84;;;1.79;100.00
76257;BME280;65074;50.436;8.672;2023-02-22T03:57:09;99311.25;;;1.83;100.00
76257;BME280;65074;50.436;8.672;2023-02-22T03:59:38;99309.94;;;1.73;100.00
76257;BME280;65074;50.436;8.672;2023-02-22T04:02:05;99310.16;;;1.71;100.00
76257;BME280;65074;50.436;8.672;2023-02-22T04:04:30;99307.50;;;1.71;100.00
76257;BME280;65074;50.436;8.672;2023-02-22T04:06:56;99304.09;;;1.77;100.00
76257;BME280;65074;50.436;8.672;2023-02-22T04:09:21;99308.34;;;1.78;100.00
76257;BME280;65074;50.436;8.672;2023-02-22T04:11:47;99303.25;;;1.77;100.00
76257;BME280;65074;50.436;8.672;2023-02-22T04:14:14;99304.72;;;1.79;100.00
76257;BME280;65074;50.436;8.672;2023-02-22T04:16:39;99292.66;;;1.77;100.00
76257;BME280;65074;50.436;8.672;2023-02-22T04:19:07;99297.97;;;1.77;100.00
76257;BME280;65074;50.436;8.672;2023-02-22T04:21:34;99300.41;;;1.78;100.00
76257;BME280;65074;50.436;8.672;2023-02-22T04:24:01;99304.13;;;1.84;100.00
76257;BME280;65074;50.436;8.672;2023-02-22T04:26:27;99303.28;;;1.83;100.00
76257;BME280;65074;50.436;8.672;2023-02-22T04:28:55;99300.47;;;1.85;100.00
76257;BME280;65074;50.436;8.672;2023-02-22T04:31:22;99297.59;;;1.86;100.00
76257;BME280;65074;50.436;8.672;2023-02-22T04:33:49;99295.41;;;1.90;100.00
76257;BME280;65074;50.436;8.672;2023-02-22T04:36:18;99297.84;;;1.91;100.00
76257;BME280;65074;50.436;8.672;2023-02-22T04:38:44;99291.94;;;1.96;100.00
76257;BME280;65074;50.436;8.672;2023-02-22T04:41:09;99290.50;;;1.93;100.00
76257;BME280;65074;50.436;8.672;2023-02-22T04:43:35;99287.88;;;2.00;100.00
76257;BME280;65074;50.436;8.672;2023-02-22T04:46:10;99292.78;;;1.96;100.00
76257;BME280;65074;50.436;8.672;2023-02-22T04:48:35;99298.69;;;1.98;100.00
76257;BME280;65074;50.436;8.672;2023-02-22T04:51:01;99296.84;;;1.92;100.00
76257;BME280;65074;50.436;8.672;2023-02-22T04:53:28;63663.97;;;-141.63;100.00
76257;BME280;65074;50.436;8.672;2023-02-22T04:55:54;63663.97;;;-141.63;100.00
76257;BME280;65074;50.436;8.672;2023-02-22T04:58:20;63663.97;;;-141.63;100.00
76257;BME280;65074;50.436;8.672;2023-02-22T05:00:46;63663.97;;;-141.63;100.00
76257;BME280;65074;50.436;8.672;2023-02-22T05:03:12;63663.97;;;-141.63;100.00
76257;BME280;65074;50.436;8.672;2023-02-22T05:05:37;63663.97;;;-141.63;100.00
76257;BME280;65074;50.436;8.672;2023-02-22T05:08:03;63663.97;;;-141.63;100.00
76257;BME280;65074;50.436;8.672;2023-02-22T05:10:28;63663.97;;;-141.63;100.00
76257;BME280;65074;50.436;8.672;2023-02-22T05:12:54;63663.97;;;-141.63;100.00
76257;BME280;65074;50.436;8.672;2023-02-22T05:15:21;63663.97;;;-141.63;100.00
76257;BME280;65074;50.436;8.672;2023-02-22T05:17:46;63663.97;;;-141.63;100.00
76257;BME280;65074;50.436;8.672;2023-02-22T05:20:25;63663.97;;;-141.63;100.00
76257;BME280;65074;50.436;8.672;2023-02-22T05:22:53;63663.97;;;-141.63;100.00
76257;BME280;65074;50.436;8.672;2023-02-22T05:25:19;63663.97;;;-141.63;100.00
76257;BME280;65074;50.436;8.672;2023-02-22T05:28:10;63663.97;;;-141.63;100.00
76257;BME280;65074;50.436;8.672;2023-02-22T05:30:37;63663.97;;;-141.63;100.00
76257;BME280;65074;50.436;8.672;2023-02-22T05:33:06;63663.97;;;-141.63;100.00
76257;BME280;65074;50.436;8.672;2023-02-22T05:35:32;63663.97;;;-141.63;100.00
76257;BME280;65074;50.436;8.672;2023-02-22T05:37:58;63663.97;;;-141.63;100.00
76257;BME280;65074;50.436;8.672;2023-02-22T05:40:27;63663.97;;;-141.63;100.00
76257;BME280;65074;50.436;8.672;2023-02-22T05:42:53;63663.97;;;-141.63;100.00
76257;BME280;65074;50.436;8.672;2023-02-22T05:45:21;63663.97;;;-141.63;100.00
76257;BME280;65074;50.436;8.672;2023-02-22T05:47:46;63663.97;;;-141.63;100.00
76257;BME280;65074;50.436;8.672;2023-02-22T05:50:13;63663.97;;;-141.63;100.00
76257;BME280;65074;50.436;8.672;2023-02-22T05:52:38;63663.97;;;-141.63;100.00
76257;BME280;65074;50.436;8.672;2023-02-22T05:55:05;63663.97;;;-141.63;100.00
76257;BME280;65074;50.436;8.672;2023-02-22T05:57:31;63663.97;;;-141.63;100.00
76257;BME280;65074;50.436;8.672;2023-02-22T05:59:56;63663.97;;;-141.63;100.00
76257;BME280;65074;50.436;8.672;2023-02-22T06:02:22;63663.97;;;-141.63;100.00
76257;BME280;65074;50.436;8.672;2023-02-22T06:04:47;63663.97;;;-141.63;100.00
76257;BME280;65074;50.436;8.672;2023-02-22T06:07:13;63663.97;;;-141.63;100.00
76257;BME280;65074;50.436;8.672;2023-02-22T06:09:39;63663.97;;;-141.63;100.00
76257;BME280;65074;50.436;8.672;2023-02-22T06:12:06;63663.97;;;-141.63;100.00
76257;BME280;65074;50.436;8.672;2023-02-22T06:14:32;63663.97;;;-141.63;100.00
76257;BME280;65074;50.436;8.672;2023-02-22T06:16:58;63663.97;;;-141.63;100.00
76257;BME280;65074;50.436;8.672;2023-02-22T06:19:25;63663.97;;;-141.63;100.00
76257;BME280;65074;50.436;8.672;2023-02-22T06:21:52;63663.97;;;-141.63;100.00
76257;BME280;65074;50.436;8.672;2023-02-22T06:24:19;63663.97;;;-141.63;100.00
76257;BME280;65074;50.436;8.672;2023-02-22T06:26:44;63663.97;;;-141.63;100.00
76257;BME280;65074;50.436;8.672;2023-02-22T06:29:10;63663.97;;;-141.63;100.00
76257;BME280;65074;50.436;8.672;2023-02-22T06:31:36;63663.97;;;-141.63;100.00
76257;BME280;65074;50.436;8.672;2023-02-22T06:34:01;63663.97;;;-141.63;100.00
76257;BME280;65074;50.436;8.672;2023-02-22T06:36:27;63663.97;;;-141.63;100.00
76257;BME280;65074;50.436;8.672;2023-02-22T06:38:52;63663.97;;;-141.63;100.00
76257;BME280;65074;50.436;8.672;2023-02-22T06:41:20;63663.97;;;-141.63;100.00
76257;BME280;65074;50.436;8.672;2023-02-22T06:43:46;63663.97;;;-141.63;100.00
76257;BME280;65074;50.436;8.672;2023-02-22T06:46:12;63663.97;;;-141.63;100.00
76257;BME280;65074;50.436;8.672;2023-02-22T06:48:37;63663.97;;;-141.63;100.00
76257;BME280;65074;50.436;8.672;2023-02-22T06:51:06;63663.97;;;-141.63;100.00
76257;BME280;65074;50.436;8.672;2023-02-22T06:53:32;63663.97;;;-141.63;100.00
76257;BME280;65074;50.436;8.672;2023-02-22T06:55:58;63663.97;;;-141.63;100.00
76257;BME280;65074;50.436;8.672;2023-02-22T06:58:23;63663.97;;;-141.63;100.00
76257;BME280;65074;50.436;8.672;2023-02-22T07:00:48;63663.97;;;-141.63;100.00
76257;BME280;65074;50.436;8.672;2023-02-22T07:03:14;63663.97;;;-141.63;100.00
76257;BME280;65074;50.436;8.672;2023-02-22T07:05:40;63663.97;;;-141.63;100.00
76257;BME280;65074;50.436;8.672;2023-02-22T07:08:06;63663.97;;;-141.63;100.00
76257;BME280;65074;50.436;8.672;2023-02-22T07:10:33;63663.97;;;-141.63;100.00
76257;BME280;65074;50.436;8.672;2023-02-22T07:12:59;63663.97;;;-141.63;100.00
76257;BME280;65074;50.436;8.672;2023-02-22T07:15:27;63663.97;;;-141.63;100.00
76257;BME280;65074;50.436;8.672;2023-02-22T07:17:52;63663.97;;;-141.63;100.00
76257;BME280;65074;50.436;8.672;2023-02-22T07:20:19;63663.97;;;-141.63;100.00
76257;BME280;65074;50.436;8.672;2023-02-22T07:22:46;63663.97;;;-141.63;100.00
76257;BME280;65074;50.436;8.672;2023-02-22T07:25:11;63663.97;;;-141.63;100.00
76257;BME280;65074;50.436;8.672;2023-02-22T07:27:38;63663.97;;;-141.63;100.00
76257;BME280;65074;50.436;8.672;2023-02-22T07:30:05;63663.97;;;-141.63;100.00
76257;BME280;65074;50.436;8.672;2023-02-22T07:32:30;63663.97;;;-141.63;100.00
76257;BME280;65074;50.436;8.672;2023-02-22T07:34:56;63663.97;;;-141.63;100.00
76257;BME280;65074;50.436;8.672;2023-02-22T07:37:21;63663.97;;;-141.63;100.00
76257;BME280;65074;50.436;8.672;2023-02-22T07:39:47;63663.97;;;-141.63;100.00
76257;BME280;65074;50.436;8.672;2023-02-22T07:42:12;63663.97;;;-141.63;100.00
76257;BME280;65074;50.436;8.672;2023-02-22T07:44:37;63663.97;;;-141.63;100.00
76257;BME280;65074;50.436;8.672;2023-02-22T07:47:03;63663.97;;;-141.63;100.00
76257;BME280;65074;50.436;8.672;2023-02-22T07:49:28;63663.97;;;-141.63;100.00
76257;BME280;65074;50.436;8.672;2023-02-22T07:51:53;63663.97;;;-141.63;100.00
76257;BME280;65074;50.436;8.672;2023-02-22T07:54:19;63663.97;;;-141.63;100.00
76257;BME280;65074;50.436;8.672;2023-02-22T07:56:46;63663.97;;;-141.63;100.00
76257;BME280;65074;50.436;8.672;2023-02-22T07:59:12;63663.97;;;-141.63;100.00
76257;BME280;65074;50.436;8.672;2023-02-22T08:01:37;63663.97;;;-141.63;100.00
76257;BME280;65074;50.436;8.672;2023-02-22T08:04:03;63663.97;;;-141.63;100.00
76257;BME280;65074;50.436;8.672;2023-02-22T08:06:29;63663.97;;;-141.63;100.00
76257;BME280;65074;50.436;8.672;2023-02-22T08:08:55;63663.97;;;-141.63;100.00
76257;BME280;65074;50.436;8.672;2023-02-22T08:11:21;63663.97;;;-141.63;100.00
76257;BME280;65074;50.436;8.672;2023-02-22T08:13:46;63663.97;;;-141.63;100.00
76257;BME280;65074;50.436;8.672;2023-02-22T08:16:11;63663.97;;;-141.63;100.00
76257;BME280;65074;50.436;8.672;2023-02-22T08:18:37;63663.97;;;-141.63;100.00
76257;BME280;65074;50.436;8.672;2023-02-22T08:21:03;63663.97;;;-141.63;100.00
76257;BME280;65074;50.436;8.672;2023-02-22T08:23:28;63663.97;;;-141.63;100.00
76257;BME280;65074;50.436;8.672;2023-02-22T08:25:54;63663.97;;;-141.63;100.00
76257;BME280;65074;50.436;8.672;2023-02-22T08:28:22;63663.97;;;-141.63;100.00
76257;BME280;65074;50.436;8.672;2023-02-22T08:30:48;63663.97;;;-141.63;100.00
76257;BME280;65074;50.436;8.672;2023-02-22T08:33:15;63663.97;;;-141.63;100.00
76257;BME280;65074;50.436;8.672;2023-02-22T08:35:44;63663.97;;;-141.63;100.00
76257;BME280;65074;50.436;8.672;2023-02-22T08:38:23;63663.97;;;-141.63;100.00
76257;BME280;65074;50.436;8.672;2023-02-22T08:40:49;63663.97;;;-141.63;100.00
76257;BME280;65074;50.436;8.672;2023-02-22T08:43:15;63663.97;;;-141.63;100.00
76257;BME280;65074;50.436;8.672;2023-02-22T08:45:41;63663.97;;;-141.63;100.00
76257;BME280;65074;50.436;8.672;2023-02-22T08:48:07;63663.97;;;-141.63;100.00
76257;BME280;65074;50.436;8.672;2023-02-22T08:50:32;63663.97;;;-141.63;100.00
76257;BME280;65074;50.436;8.672;2023-02-22T08:52:59;63663.97;;;-141.63;100.00
76257;BME280;65074;50.436;8.672;2023-02-22T08:55:28;63663.97;;;-141.63;100.00
76257;BME280;65074;50.436;8.672;2023-02-22T08:57:54;63663.97;;;-141.63;100.00
76257;BME280;65074;50.436;8.672;2023-02-22T09:00:21;63663.97;;;-141.63;100.00
76257;BME280;65074;50.436;8.672;2023-02-22T09:02:49;63663.97;;;-141.63;100.00
76257;BME280;65074;50.436;8.672;2023-02-22T09:05:14;63663.97;;;-141.63;100.00
76257;BME280;65074;50.436;8.672;2023-02-22T09:07:41;63663.97;;;-141.63;100.00
76257;BME280;65074;50.436;8.672;2023-02-22T09:10:10;63663.97;;;-141.63;100.00
76257;BME280;65074;50.436;8.672;2023-02-22T09:12:36;63663.97;;;-141.63;100.00
76257;BME280;65074;50.436;8.672;2023-02-22T09:15:02;63663.97;;;-141.63;100.00
76257;BME280;65074;50.436;8.672;2023-02-22T09:17:27;63663.97;;;-141.63;100.00
76257;BME280;65074;50.436;8.672;2023-02-22T09:19:53;63663.97;;;-141.63;100.00
76257;BME280;65074;50.436;8.672;2023-02-22T09:22:18;63663.97;;;-141.63;100.00
76257;BME280;65074;50.436;8.672;2023-02-22T09:24:44;63663.97;;;-141.63;100.00
76257;BME280;65074;50.436;8.672;2023-02-22T09:27:09;63663.97;;;-141.63;100.00
76257;BME280;65074;50.436;8.672;2023-02-22T09:29:36;63663.97;;;-141.63;100.00
76257;BME280;65074;50.436;8.672;2023-02-22T09:32:02;63663.97;;;-141.63;100.00
76257;BME280;65074;50.436;8.672;2023-02-22T09:34:28;63663.97;;;-141.63;100.00
76257;BME280;65074;50.436;8.672;2023-02-22T09:36:56;63663.97;;;-141.63;100.00
76257;BME280;65074;50.436;8.672;2023-02-22T09:39:22;63663.97;;;-141.63;100.00
76257;BME280;65074;50.436;8.672;2023-02-22T09:42:16;63663.97;;;-141.63;100.00
76257;BME280;65074;50.436;8.672;2023-02-22T09:44:54;63663.97;;;-141.63;100.00
76257;BME280;65074;50.436;8.672;2023-02-22T09:47:35;63663.97;;;-141.63;100.00
76257;BME280;65074;50.436;8.672;2023-02-22T09:50:12;63663.97;;;-141.63;100.00
76257;BME280;65074;50.436;8.672;2023-02-22T09:58:06;63663.97;;;-141.63;100.00
76257;BME280;65074;50.436;8.672;2023-02-22T10:00:36;63663.97;;;-141.63;100.00
76257;BME280;65074;50.436;8.672;2023-02-22T10:06:12;63663.97;;;-141.63;100.00
76257;BME280;65074;50.436;8.672;2023-02-22T10:08:40;63663.97;;;-141.63;100.00
76257;BME280;65074;50.436;8.672;2023-02-22T10:19:40;63663.97;;;-141.63;100.00
76257;BME280;65074;50.436;8.672;2023-02-22T10:22:20;63663.97;;;-141.63;100.00
76257;BME280;65074;50.436;8.672;2023-02-22T10:24:58;63663.97;;;-141.63;100.00
76257;BME280;65074;50.436;8.672;2023-02-22T10:27:31;63663.97;;;-141.63;100.00
76257;BME280;65074;50.436;8.672;2023-02-22T10:32:42;63663.97;;;-141.63;100.00
76257;BME280;65074;50.436;8.672;2023-02-22T10:35:20;63663.97;;;-141.63;100.00
76257;BME280;65074;50.436;8.672;2023-02-22T10:37:48;63663.97;;;-141.63;100.00
76257;BME280;65074;50.436;8.672;2023-02-22T10:40:22;63663.97;;;-141.63;100.00
76257;BME280;65074;50.436;8.672;2023-02-22T10:43:04;63663.97;;;-141.63;100.00
76257;BME280;65074;50.436;8.672;2023-02-22T10:45:32;63663.97;;;-141.63;100.00
76257;BME280;65074;50.436;8.672;2023-02-22T10:48:18;63663.97;;;-141.63;100.00
76257;BME280;65074;50.436;8.672;2023-02-22T10:50:46;63663.97;;;-141.63;100.00
76257;BME280;65074;50.436;8.672;2023-02-22T10:53:12;63663.97;;;-141.63;100.00
76257;BME280;65074;50.436;8.672;2023-02-22T10:56:13;63663.97;;;-141.63;100.00
76257;BME280;65074;50.436;8.672;2023-02-22T10:59:23;63663.97;;;-141.63;100.00
76257;BME280;65074;50.436;8.672;2023-02-22T11:06:28;63663.97;;;-141.63;100.00
76257;BME280;65074;50.436;8.672;2023-02-22T11:09:15;63663.97;;;-141.63;100.00
76257;BME280;65074;50.436;8.672;2023-02-22T11:11:44;63663.97;;;-141.63;100.00
76257;BME280;65074;50.436;8.672;2023-02-22T11:14:14;63663.97;;;-141.63;100.00
76257;BME280;65074;50.436;8.672;2023-02-22T11:16:51;63663.97;;;-141.63;100.00
76257;BME280;65074;50.436;8.672;2023-02-22T11:19:28;63663.97;;;-141.63;100.00
76257;BME280;65074;50.436;8.672;2023-02-22T11:25:02;63663.97;;;-141.63;100.00
76257;BME280;65074;50.436;8.672;2023-02-22T11:27:42;63663.97;;;-141.63;100.00
76257;BME280;65074;50.436;8.672;2023-02-22T11:30:28;63663.97;;;-141.63;100.00
76257;BME280;65074;50.436;8.672;2023-02-22T11:32:58;63663.97;;;-141.63;100.00
76257;BME280;65074;50.436;8.672;2023-02-22T11:38:00;63663.97;;;-141.63;100.00
76257;BME280;65074;50.436;8.672;2023-02-22T11:40:33;63663.97;;;-141.63;100.00
76257;BME280;65074;50.436;8.672;2023-02-22T11:43:16;63663.97;;;-141.63;100.00
76257;BME280;65074;50.436;8.672;2023-02-22T11:45:57;63663.97;;;-141.63;100.00
76257;BME280;65074;50.436;8.672;2023-02-22T11:48:29;63663.97;;;-141.63;100.00
76257;BME280;65074;50.436;8.672;2023-02-22T11:56:39;63663.97;;;-141.63;100.00
76257;BME280;65074;50.436;8.672;2023-02-22T12:02:00;63663.97;;;-141.63;100.00
76257;BME280;65074;50.436;8.672;2023-02-22T12:04:35;63663.97;;;-141.63;100.00
76257;BME280;65074;50.436;8.672;2023-02-22T12:13:14;63663.97;;;-141.63;100.00
76257;BME280;65074;50.436;8.672;2023-02-22T12:19:00;63663.97;;;-141.63;100.00
76257;BME280;65074;50.436;8.672;2023-02-22T12:21:31;63663.97;;;-141.63;100.00
76257;BME280;65074;50.436;8.672;2023-02-22T12:24:13;63663.97;;;-141.63;100.00
76257;BME280;65074;50.436;8.672;2023-02-22T12:26:43;63663.97;;;-141.63;100.00
76257;BME280;65074;50.436;8.672;2023-02-22T12:29:21;63663.97;;;-141.63;100.00
76257;BME280;65074;50.436;8.672;2023-02-22T12:34:51;63663.97;;;-141.63;100.00
76257;BME280;65074;50.436;8.672;2023-02-22T12:40:26;63663.97;;;-141.63;100.00
76257;BME280;65074;50.436;8.672;2023-02-22T12:45:34;63663.97;;;-141.63;100.00
76257;BME280;65074;50.436;8.672;2023-02-22T12:48:19;63663.97;;;-141.63;100.00
76257;BME280;65074;50.436;8.672;2023-02-22T12:50:48;63663.97;;;-141.63;100.00
76257;BME280;65074;50.436;8.672;2023-02-22T12:53:35;63663.97;;;-141.63;100.00
76257;BME280;65074;50.436;8.672;2023-02-22T12:56:30;63663.97;;;-141.63;100.00
76257;BME280;65074;50.436;8.672;2023-02-22T12:59:19;63663.97;;;-141.63;100.00
76257;BME280;65074;50.436;8.672;2023-02-22T13:04:35;63663.97;;;-141.63;100.00
76257;BME280;65074;50.436;8.672;2023-02-22T13:07:14;63663.97;;;-141.63;100.00
76257;BME280;65074;50.436;8.672;2023-02-22T13:10:20;63663.97;;;-141.63;100.00
76257;BME280;65074;50.436;8.672;2023-02-22T13:12:51;63663.97;;;-141.63;100.00
76257;BME280;65074;50.436;8.672;2023-02-22T13:15:35;63663.97;;;-141.63;100.00
76257;BME280;65074;50.436;8.672;2023-02-22T13:20:38;63663.97;;;-141.63;100.00
76257;BME280;65074;50.436;8.672;2023-02-22T13:25:46;63663.97;;;-141.63;100.00
76257;BME280;65074;50.436;8.672;2023-02-22T13:28:40;63663.97;;;-141.63;100.00
76257;BME280;65074;50.436;8.672;2023-02-22T13:31:15;63663.97;;;-141.63;100.00
76257;BME280;65074;50.436;8.672;2023-02-22T13:36:36;63663.97;;;-141.63;100.00
76257;BME280;65074;50.436;8.672;2023-02-22T13:53:17;63663.97;;;-141.63;100.00
76257;BME280;65074;50.436;8.672;2023-02-22T13:55:50;63663.97;;;-141.63;100.00
76257;BME280;65074;50.436;8.672;2023-02-22T13:58:17;63663.97;;;-141.63;100.00
76257;BME280;65074;50.436;8.672;2023-02-22T14:00:48;63663.97;;;-141.63;100.00
76257;BME280;65074;50.436;8.672;2023-02-22T14:10:55;63663.97;;;-141.63;100.00
76257;BME280;65074;50.436;8.672;2023-02-22T14:13:26;63663.97;;;-141.63;100.00
76257;BME280;65074;50.436;8.672;2023-02-22T14:18:45;63663.97;;;-141.63;100.00
76257;BME280;65074;50.436;8.672;2023-02-22T14:21:20;63663.97;;;-141.63;100.00
76257;BME280;65074;50.436;8.672;2023-02-22T14:23:48;63663.97;;;-141.63;100.00
76257;BME280;65074;50.436;8.672;2023-02-22T14:29:00;63663.97;;;-141.63;100.00
76257;BME280;65074;50.436;8.672;2023-02-22T14:34:19;63663.97;;;-141.63;100.00
76257;BME280;65074;50.436;8.672;2023-02-22T14:36:47;63663.97;;;-141.63;100.00
76257;BME280;65074;50.436;8.672;2023-02-22T14:44:30;63663.97;;;-141.63;100.00
76257;BME280;65074;50.436;8.672;2023-02-22T14:46:58;63663.97;;;-141.63;100.00
76257;BME280;65074;50.436;8.672;2023-02-22T14:49:31;63663.97;;;-141.63;100.00
76257;BME280;65074;50.436;8.672;2023-02-22T14:52:05;63663.97;;;-141.63;100.00
76257;BME280;65074;50.436;8.672;2023-02-22T14:54:35;63663.97;;;-141.63;100.00